Time;durP1;ratioP1;P1;durP2;ratioP2;P2;SDS_P1;SDS_P2;PMS_P1;PMS_P2;Temp;Humidity;BMP_temperature;BMP_pressure;BME280_temperature;BME280_humidity;BME280_pressure;Samples;Min_cycle;Max_cycle;Signal;HPM_P1;HPM_P2
2021/12/25 00:01:10;;;;;;;4.68;3.10;;;6.20;99.90;;;;;;5009972;28;20818;-68
2021/12/25 00:03:36;;;;;;;11.85;3.40;;;6.20;99.90;;;;;;5009298;28;20029;-68
2021/12/25 00:06:02;;;;;;;5.85;2.65;;;6.10;99.90;;;;;;5016651;28;21096;-68
2021/12/25 00:08:29;;;;;;;5.22;3.10;;;6.10;99.90;;;;;;5010457;28;20544;-68
2021/12/25 00:10:56;;;;;;;4.82;2.83;;;6.20;99.90;;;;;;5010489;28;20372;-68
2021/12/25 00:13:22;;;;;;;6.18;3.20;;;6.20;99.90;;;;;;5011723;28;20030;-68
2021/12/25 00:15:49;;;;;;;5.00;2.88;;;6.20;99.90;;;;;;5013190;28;20030;-67
2021/12/25 00:18:15;;;;;;;4.93;3.28;;;6.10;99.90;;;;;;5013854;28;20569;-68
2021/12/25 00:20:41;;;;;;;4.50;2.90;;;6.20;99.90;;;;;;5017681;28;20033;-68
2021/12/25 00:23:07;;;;;;;4.57;2.85;;;6.20;99.90;;;;;;5018677;28;20038;-67
2021/12/25 00:25:38;;;;;;;5.43;3.33;;;6.20;99.90;;;;;;5012555;28;20036;-68
2021/12/25 00:31:47;;;;;;;4.68;3.00;;;6.20;99.90;;;;;;5009984;28;20515;-68
2021/12/25 00:36:06;;;;;;;7.95;3.20;;;6.20;99.90;;;;;;5013569;28;20037;-67
2021/12/25 00:38:32;;;;;;;3.63;2.63;;;6.20;99.90;;;;;;5015074;28;20041;-68
2021/12/25 00:40:58;;;;;;;5.20;3.75;;;6.20;99.90;;;;;;5014049;28;20706;-68
2021/12/25 00:43:24;;;;;;;4.30;3.30;;;6.20;99.90;;;;;;5013655;28;20041;-68
2021/12/25 00:45:50;;;;;;;4.70;3.40;;;6.20;99.90;;;;;;5008798;28;20734;-68
2021/12/25 00:48:15;;;;;;;5.53;3.60;;;6.20;99.90;;;;;;5017013;28;20057;-68
2021/12/25 00:50:41;;;;;;;7.22;2.95;;;6.20;99.90;;;;;;5013232;28;20055;-67
2021/12/25 00:53:07;;;;;;;3.03;2.55;;;6.20;99.90;;;;;;5010399;28;20038;-67
2021/12/25 00:55:33;;;;;;;3.08;2.78;;;6.10;99.90;;;;;;5012113;28;20045;-69
2021/12/25 00:57:58;;;;;;;3.88;3.10;;;6.10;99.90;;;;;;5016821;28;20030;-68
2021/12/25 01:00:24;;;;;;;3.85;3.00;;;6.10;99.90;;;;;;5015804;28;20070;-69
2021/12/25 01:02:50;;;;;;;4.65;2.97;;;6.10;99.90;;;;;;5008463;28;20046;-69
2021/12/25 01:05:17;;;;;;;4.75;2.72;;;6.10;99.90;;;;;;5017085;28;20220;-69
2021/12/25 01:07:44;;;;;;;4.28;2.83;;;6.10;99.90;;;;;;5012183;28;20441;-68
2021/12/25 01:10:14;;;;;;;3.88;2.88;;;6.10;99.90;;;;;;5012824;28;20095;-68
2021/12/25 01:15:21;;;;;;;6.60;3.20;;;6.10;99.90;;;;;;5013221;28;20029;-69
2021/12/25 01:18:09;;;;;;;5.68;3.38;;;6.00;99.90;;;;;;4997460;28;20373;-66
2021/12/25 01:31:16;;;;;;;;;;;6.10;99.90;;;;;;5021170;28;20452;-68
2021/12/25 01:34:19;;;;;;;4.70;3.47;;;6.00;99.90;;;;;;5013218;28;19981;-68
2021/12/25 01:49:49;;;;;;;5.15;3.78;;;6.00;99.90;;;;;;5007790;28;20037;-68
2021/12/25 01:52:14;;;;;;;4.80;3.50;;;6.00;99.90;;;;;;5011210;28;20091;-68
2021/12/25 01:54:40;;;;;;;4.95;3.45;;;6.00;99.90;;;;;;5010063;28;20021;-68
2021/12/25 01:57:07;;;;;;;5.78;3.40;;;6.00;99.90;;;;;;5015795;28;20053;-67
2021/12/25 01:59:33;;;;;;;6.72;3.45;;;6.00;99.90;;;;;;5012723;28;20056;-67
2021/12/25 02:01:59;;;;;;;5.13;3.42;;;6.00;99.90;;;;;;5010417;28;20089;-67
2021/12/25 02:04:24;;;;;;;5.68;3.08;;;6.00;99.90;;;;;;5011268;28;20029;-67
2021/12/25 02:06:50;;;;;;;6.05;3.35;;;6.00;99.90;;;;;;5007299;28;20026;-68
2021/12/25 02:09:17;;;;;;;4.82;3.30;;;6.00;99.90;;;;;;5014337;28;20033;-68
2021/12/25 02:11:43;;;;;;;5.85;3.75;;;6.00;99.90;;;;;;5010531;28;20029;-67
2021/12/25 02:14:09;;;;;;;5.82;4.13;;;6.00;99.90;;;;;;5006838;28;20748;-68
2021/12/25 02:16:53;;;;;;;5.07;3.42;;;6.00;99.90;;;;;;5014084;28;20034;-67
2021/12/25 02:19:33;;;;;;;4.93;3.65;;;6.00;99.90;;;;;;5013378;28;20044;-68
2021/12/25 02:22:01;;;;;;;6.68;3.63;;;6.00;99.90;;;;;;5011082;28;20045;-68
2021/12/25 02:24:27;;;;;;;5.00;3.25;;;6.00;99.90;;;;;;5007468;28;20112;-68
2021/12/25 02:26:52;;;;;;;5.85;4.05;;;5.90;99.90;;;;;;5010264;28;20033;-68
2021/12/25 02:29:18;;;;;;;5.10;3.53;;;6.00;99.90;;;;;;5010864;28;20060;-68
2021/12/25 02:31:44;;;;;;;5.90;3.70;;;5.90;99.90;;;;;;5018295;28;20121;-68
2021/12/25 02:34:09;;;;;;;4.45;3.20;;;5.90;99.90;;;;;;5006687;28;20033;-68
2021/12/25 02:36:35;;;;;;;7.63;3.80;;;5.90;99.90;;;;;;5012692;28;21546;-68
2021/12/25 02:39:01;;;;;;;17.70;9.63;;;5.90;99.90;;;;;;5009821;28;20054;-69
2021/12/25 02:41:26;;;;;;;13.57;8.07;;;5.90;99.90;;;;;;5010728;28;20045;-68
2021/12/25 02:43:52;;;;;;;18.30;9.52;;;5.90;99.90;;;;;;5014193;28;20022;-68
2021/12/25 02:46:18;;;;;;;9.48;6.45;;;6.00;99.90;;;;;;5014999;28;20036;-68
2021/12/25 02:48:44;;;;;;;31.45;11.60;;;6.00;99.90;;;;;;5006667;28;20034;-68
2021/12/25 02:51:11;;;;;;;24.33;9.40;;;6.00;99.90;;;;;;5015072;28;20049;-68
2021/12/25 02:53:38;;;;;;;44.40;17.35;;;6.00;99.90;;;;;;5014115;28;20033;-68
2021/12/25 02:56:04;;;;;;;30.30;11.82;;;6.00;99.90;;;;;;5006035;28;20087;-68
2021/12/25 02:58:30;;;;;;;4.57;3.65;;;6.00;99.90;;;;;;5013053;28;20026;-68
2021/12/25 03:01:09;;;;;;;8.05;3.90;;;6.00;99.90;;;;;;5012426;28;20053;-68
2021/12/25 03:03:35;;;;;;;4.90;3.30;;;5.90;99.90;;;;;;5011798;28;20038;-68
2021/12/25 03:06:08;;;;;;;5.55;3.63;;;5.90;99.90;;;;;;5012079;28;20072;-68
2021/12/25 03:08:35;;;;;;;6.55;4.22;;;5.90;99.90;;;;;;5013088;28;20113;-68
2021/12/25 03:11:03;;;;;;;135.23;53.13;;;5.90;99.90;;;;;;5012442;28;20048;-69
2021/12/25 03:13:35;;;;;;;77.38;31.52;;;5.90;99.90;;;;;;5008637;28;20120;-68
2021/12/25 03:16:03;;;;;;;123.00;49.58;;;5.90;99.90;;;;;;5012856;28;20057;-69
2021/12/25 03:18:33;;;;;;;80.22;31.70;;;5.90;99.90;;;;;;5012879;28;20041;-69
2021/12/25 03:21:02;;;;;;;62.38;26.48;;;5.90;99.90;;;;;;5010385;28;20038;-68
2021/12/25 03:23:29;;;;;;;36.80;17.25;;;5.90;99.90;;;;;;5011368;28;20117;-68
2021/12/25 03:25:57;;;;;;;141.15;51.33;;;5.90;99.90;;;;;;5010479;28;20025;-68
2021/12/25 03:28:25;;;;;;;91.10;34.33;;;5.90;99.90;;;;;;5006404;28;20057;-68
2021/12/25 03:30:51;;;;;;;18.08;8.23;;;5.90;99.90;;;;;;5010411;28;20049;-67
2021/12/25 03:33:19;;;;;;;22.75;13.75;;;5.90;99.90;;;;;;5010968;28;20033;-67
2021/12/25 03:35:45;;;;;;;12.00;6.37;;;6.00;99.90;;;;;;5011231;28;20038;-67
2021/12/25 03:38:14;;;;;;;15.82;8.45;;;6.00;99.90;;;;;;5007471;28;20036;-67
2021/12/25 03:40:41;;;;;;;4.78;3.85;;;5.90;99.90;;;;;;5006950;28;20048;-67
2021/12/25 03:43:07;;;;;;;6.78;4.07;;;6.00;99.90;;;;;;5013665;28;20037;-67
2021/12/25 03:45:35;;;;;;;6.57;3.78;;;6.00;99.90;;;;;;5008700;28;20041;-67
2021/12/25 03:57:37;;;;;;;4.82;3.53;;;6.00;99.90;;;;;;5007842;28;20539;-67
2021/12/25 03:59:11;;;;;;;5.15;3.55;;;6.00;99.90;;;;;;5011475;28;20028;-67
2021/12/25 04:09:48;;;;;;;3.60;3.20;;;6.00;99.90;;;;;;4990996;28;20045;-69
2021/12/25 04:12:14;;;;;;;3.70;3.08;;;6.00;99.90;;;;;;4990071;28;20041;-69
2021/12/25 04:14:40;;;;;;;4.88;3.42;;;6.00;99.90;;;;;;5007217;28;20021;-68
2021/12/25 04:17:07;;;;;;;4.70;3.60;;;6.00;99.90;;;;;;5011734;28;20037;-68
2021/12/25 04:19:33;;;;;;;4.93;2.70;;;6.00;99.90;;;;;;5007118;28;20037;-69
2021/12/25 04:22:06;;;;;;;5.03;3.55;;;6.00;99.90;;;;;;5012778;28;21302;-68
2021/12/25 04:24:36;;;;;;;4.63;3.15;;;6.00;99.90;;;;;;5012225;28;20025;-68
2021/12/25 04:27:05;;;;;;;4.00;3.17;;;6.00;99.90;;;;;;4988332;28;20168;-69
2021/12/25 04:29:38;;;;;;;3.47;2.80;;;6.00;99.90;;;;;;5010098;28;20029;-68
2021/12/25 05:02:20;;;;;;;6.07;3.67;;;5.90;99.90;;;;;;5011584;28;20085;-68
2021/12/25 05:04:52;;;;;;;6.85;3.60;;;5.90;99.90;;;;;;5013346;28;20041;-68
2021/12/25 05:07:18;;;;;;;4.65;3.35;;;5.80;99.90;;;;;;5011742;28;20449;-68
2021/12/25 05:09:44;;;;;;;5.38;3.63;;;5.80;99.90;;;;;;5012225;28;20049;-68
2021/12/25 05:12:10;;;;;;;3.10;2.80;;;5.80;99.90;;;;;;5009374;28;20041;-69
2021/12/25 05:14:35;;;;;;;3.72;3.22;;;5.80;99.90;;;;;;5013496;28;20120;-68
2021/12/25 05:17:01;;;;;;;3.85;2.45;;;5.80;99.90;;;;;;4991674;28;20500;-68
2021/12/25 05:19:27;;;;;;;3.22;2.67;;;5.80;99.90;;;;;;5015132;28;20037;-69
2021/12/25 05:21:53;;;;;;;3.30;2.70;;;5.80;99.90;;;;;;5015144;28;20116;-68
2021/12/25 05:24:18;;;;;;;3.38;2.83;;;5.80;99.90;;;;;;5017815;28;20112;-68
2021/12/25 05:26:44;;;;;;;2.90;2.55;;;5.80;99.90;;;;;;5013760;28;20452;-68
2021/12/25 05:29:10;;;;;;;5.07;3.00;;;5.80;99.90;;;;;;5017659;28;20030;-69
2021/12/25 05:31:37;;;;;;;4.07;2.42;;;5.90;99.90;;;;;;5010427;28;20052;-69
2021/12/25 05:34:03;;;;;;;35.08;18.85;;;5.90;99.90;;;;;;5013307;28;20045;-69
2021/12/25 05:36:30;;;;;;;22.48;11.13;;;5.80;99.90;;;;;;5009953;28;20033;-69
2021/12/25 05:38:59;;;;;;;18.00;8.88;;;5.80;99.90;;;;;;5012904;28;20092;-69
2021/12/25 05:41:27;;;;;;;14.77;8.55;;;5.90;99.90;;;;;;5016161;28;20909;-69
2021/12/25 05:43:54;;;;;;;7.57;5.50;;;5.90;99.90;;;;;;5011806;28;20057;-69
2021/12/25 05:46:20;;;;;;;7.60;5.25;;;5.80;99.90;;;;;;5013622;28;20485;-69
2021/12/25 05:48:48;;;;;;;5.22;3.45;;;5.80;99.90;;;;;;5014403;28;20022;-69
2021/12/25 05:51:14;;;;;;;5.50;3.50;;;5.80;99.90;;;;;;5010992;28;20045;-69
2021/12/25 05:53:40;;;;;;;3.83;2.97;;;5.80;99.90;;;;;;5012541;28;20030;-69
2021/12/25 05:56:06;;;;;;;4.45;2.72;;;5.80;99.90;;;;;;5012993;28;20068;-68
2021/12/25 05:58:32;;;;;;;7.13;3.38;;;5.80;99.90;;;;;;5015071;28;20057;-69
2021/12/25 06:00:58;;;;;;;4.05;2.90;;;5.70;99.90;;;;;;5011138;28;20400;-68
2021/12/25 06:03:23;;;;;;;5.38;3.90;;;5.80;99.90;;;;;;5013106;28;20041;-68
2021/12/25 06:05:49;;;;;;;6.15;5.55;;;5.70;99.90;;;;;;5012660;28;20477;-68
2021/12/25 06:08:15;;;;;;;9.35;6.18;;;5.70;99.90;;;;;;5013625;28;20084;-68
2021/12/25 06:10:42;;;;;;;6.72;5.60;;;5.70;99.90;;;;;;5008898;28;20036;-68
2021/12/25 06:13:11;;;;;;;7.15;5.35;;;5.70;99.90;;;;;;5015144;28;20030;-68
2021/12/25 06:15:37;;;;;;;5.65;3.67;;;5.70;99.90;;;;;;5012913;28;20045;-69
2021/12/25 06:18:03;;;;;;;5.43;4.32;;;5.70;99.90;;;;;;5009961;28;20026;-68
2021/12/25 06:20:29;;;;;;;4.07;3.10;;;5.70;99.90;;;;;;5016422;28;20109;-68
2021/12/25 06:22:55;;;;;;;4.07;2.85;;;5.70;99.90;;;;;;5006946;28;20076;-69
2021/12/25 06:25:21;;;;;;;3.58;3.03;;;5.50;99.90;;;;;;5013307;28;20115;-68
2021/12/25 06:27:47;;;;;;;3.85;2.97;;;5.40;99.90;;;;;;5008808;28;20037;-68
2021/12/25 06:30:13;;;;;;;2.95;2.70;;;5.40;99.90;;;;;;5007260;28;20026;-68
2021/12/25 06:32:39;;;;;;;4.20;3.25;;;5.40;99.90;;;;;;5010165;28;20046;-68
2021/12/25 06:35:06;;;;;;;7.07;3.75;;;5.40;99.90;;;;;;5010739;28;20116;-68
2021/12/25 06:37:31;;;;;;;11.77;5.72;;;5.30;99.90;;;;;;5010933;28;20039;-68
2021/12/25 06:39:57;;;;;;;20.85;10.65;;;5.30;99.90;;;;;;5006867;28;20026;-68
2021/12/25 06:42:23;;;;;;;12.75;6.63;;;5.40;99.90;;;;;;5016420;28;20083;-68
2021/12/25 06:44:49;;;;;;;7.72;4.80;;;5.40;99.90;;;;;;5011664;28;20029;-68
2021/12/25 06:47:14;;;;;;;18.38;9.68;;;5.40;99.90;;;;;;5011195;28;20109;-68
2021/12/25 06:49:40;;;;;;;38.53;16.40;;;5.40;99.90;;;;;;5014116;28;20061;-68
2021/12/25 06:52:06;;;;;;;36.50;14.40;;;5.40;99.90;;;;;;5007449;28;20049;-69
2021/12/25 06:54:32;;;;;;;29.77;11.75;;;5.40;99.90;;;;;;5019544;28;20117;-68
2021/12/25 06:56:58;;;;;;;25.25;11.93;;;5.40;99.90;;;;;;5010433;28;20124;-69
2021/12/25 06:59:23;;;;;;;30.05;11.30;;;5.40;99.90;;;;;;5012133;28;20125;-68
2021/12/25 07:01:50;;;;;;;115.85;55.25;;;5.40;99.90;;;;;;5012438;28;20184;-68
2021/12/25 07:04:16;;;;;;;15.35;13.48;;;5.40;99.90;;;;;;5008007;28;20045;-69
2021/12/25 07:06:42;;;;;;;10.90;7.82;;;5.40;99.90;;;;;;5007864;28;20033;-69
2021/12/25 07:09:09;;;;;;;9.02;6.03;;;5.40;99.90;;;;;;5007716;28;20121;-68
2021/12/25 07:11:35;;;;;;;10.10;8.88;;;5.40;99.90;;;;;;5007074;28;20049;-68
2021/12/25 07:14:03;;;;;;;13.07;9.63;;;5.40;99.90;;;;;;5009114;28;20026;-68
2021/12/25 07:16:30;;;;;;;12.75;6.88;;;5.40;99.90;;;;;;5010527;28;20037;-68
2021/12/25 07:18:55;;;;;;;9.73;6.15;;;5.50;99.90;;;;;;5009552;28;20537;-69
2021/12/25 07:21:21;;;;;;;10.00;5.50;;;5.50;99.90;;;;;;5008528;28;20025;-68
2021/12/25 07:23:47;;;;;;;9.80;4.93;;;5.50;99.90;;;;;;5010959;28;20133;-68
2021/12/25 07:26:16;;;;;;;6.82;4.10;;;5.40;99.90;;;;;;5008186;28;20034;-69
2021/12/25 07:28:42;;;;;;;6.45;3.88;;;5.30;99.90;;;;;;5005869;28;20085;-69
2021/12/25 07:31:08;;;;;;;6.82;3.70;;;5.30;99.90;;;;;;5008221;28;20132;-68
2021/12/25 07:33:36;;;;;;;8.90;3.90;;;5.30;99.90;;;;;;5012277;28;20183;-68
2021/12/25 07:36:03;;;;;;;6.72;4.47;;;5.30;99.90;;;;;;5012681;28;20030;-69
2021/12/25 07:38:29;;;;;;;6.18;3.20;;;5.30;99.90;;;;;;5010457;28;20037;-68
2021/12/25 07:40:55;;;;;;;4.55;3.40;;;5.30;99.90;;;;;;5009623;28;20551;-69
2021/12/25 07:43:21;;;;;;;5.70;3.50;;;5.30;99.90;;;;;;5013749;28;20029;-68
2021/12/25 07:45:48;;;;;;;6.20;3.67;;;5.30;99.90;;;;;;5006643;28;20053;-69
2021/12/25 07:48:18;;;;;;;4.22;3.75;;;5.20;99.90;;;;;;5009252;28;20041;-68
2021/12/25 07:50:43;;;;;;;4.32;3.60;;;5.20;99.90;;;;;;5004878;28;20201;-68
2021/12/25 07:53:10;;;;;;;4.70;3.33;;;5.10;99.90;;;;;;5006238;28;20034;-68
2021/12/25 07:55:36;;;;;;;6.78;3.50;;;5.20;99.90;;;;;;5007307;28;22165;-68
2021/12/25 07:58:02;;;;;;;5.45;2.88;;;5.10;99.90;;;;;;5008770;28;20034;-68
2021/12/25 08:00:28;;;;;;;4.55;3.30;;;5.20;99.90;;;;;;5012038;28;20843;-68
2021/12/25 08:02:54;;;;;;;6.13;3.60;;;5.20;99.90;;;;;;5010271;28;20041;-68
2021/12/25 08:05:20;;;;;;;4.93;4.03;;;5.20;99.90;;;;;;5012384;28;20092;-69
2021/12/25 08:07:47;;;;;;;5.40;3.58;;;5.20;99.90;;;;;;5007201;28;20038;-68
2021/12/25 08:10:18;;;;;;;5.95;3.83;;;5.20;99.90;;;;;;5009978;28;20623;-68
2021/12/25 08:12:47;;;;;;;4.18;3.17;;;5.20;99.90;;;;;;4989802;28;20030;-68
2021/12/25 08:15:13;;;;;;;4.80;3.20;;;5.20;99.90;;;;;;5013208;28;20100;-68
2021/12/25 08:17:40;;;;;;;5.50;2.95;;;5.30;99.90;;;;;;5006657;28;20042;-68
2021/12/25 08:20:08;;;;;;;5.50;3.78;;;5.30;99.90;;;;;;5007081;28;20353;-68
2021/12/25 08:22:34;;;;;;;3.83;3.30;;;5.30;99.90;;;;;;5012268;28;20030;-68
2021/12/25 08:25:00;;;;;;;6.07;3.15;;;5.30;99.90;;;;;;5005133;28;20057;-68
2021/12/25 08:27:25;;;;;;;5.43;3.13;;;5.30;99.90;;;;;;5005821;28;20725;-69
2021/12/25 08:29:51;;;;;;;6.75;3.28;;;5.30;99.90;;;;;;4994729;28;20077;-68
2021/12/25 08:32:17;;;;;;;5.95;3.83;;;5.30;99.90;;;;;;5005246;28;20477;-67
2021/12/25 08:34:43;;;;;;;4.97;3.17;;;5.30;99.90;;;;;;5011107;28;20119;-68
2021/12/25 08:37:09;;;;;;;6.70;3.97;;;5.30;99.90;;;;;;5010109;28;20029;-68
2021/12/25 08:39:35;;;;;;;8.30;4.80;;;5.40;99.90;;;;;;5008611;28;20033;-68
2021/12/25 08:42:04;;;;;;;8.10;4.78;;;5.40;99.90;;;;;;5008834;28;20053;-68
2021/12/25 08:44:38;;;;;;;7.10;4.80;;;5.40;99.90;;;;;;5009722;28;20042;-68
2021/12/25 08:47:08;;;;;;;11.25;5.03;;;5.40;99.90;;;;;;5009200;28;20576;-69
2021/12/25 08:49:36;;;;;;;7.10;4.45;;;5.40;99.90;;;;;;5008363;28;20034;-68
2021/12/25 08:52:06;;;;;;;7.83;4.33;;;5.40;99.90;;;;;;5008413;28;20046;-69
2021/12/25 08:54:32;;;;;;;6.38;4.20;;;5.40;99.90;;;;;;5011855;28;20026;-69
2021/12/25 08:57:00;;;;;;;7.95;3.70;;;5.50;99.90;;;;;;5011880;28;20706;-70
2021/12/25 08:59:27;;;;;;;5.88;3.90;;;5.60;99.90;;;;;;5012066;28;20054;-69
2021/12/25 09:01:53;;;;;;;5.45;3.65;;;5.60;99.90;;;;;;5015155;28;20056;-69
2021/12/25 09:04:19;;;;;;;5.82;3.65;;;5.60;99.90;;;;;;5014258;28;20021;-69
2021/12/25 09:06:44;;;;;;;4.75;3.40;;;5.70;99.90;;;;;;5019494;28;20460;-69
2021/12/25 09:09:10;;;;;;;4.97;3.58;;;5.70;99.90;;;;;;5010121;28;20048;-69
2021/12/25 09:11:37;;;;;;;6.55;3.08;;;5.80;99.90;;;;;;5009400;28;20857;-69
2021/12/25 09:14:04;;;;;;;4.68;3.38;;;5.80;99.90;;;;;;5017837;28;20083;-69
2021/12/25 09:16:30;;;;;;;7.50;2.80;;;5.80;99.90;;;;;;5012782;28;20022;-69
2021/12/25 09:18:55;;;;;;;3.17;2.60;;;6.00;99.90;;;;;;5010750;28;20038;-69
2021/12/25 09:21:21;;;;;;;3.40;2.30;;;6.00;99.90;;;;;;5005201;28;20107;-67
2021/12/25 09:23:47;;;;;;;5.35;2.20;;;6.10;99.90;;;;;;5009221;28;20439;-67
2021/12/25 09:26:13;;;;;;;3.90;2.33;;;6.10;99.90;;;;;;5012942;28;20454;-67
2021/12/25 09:28:39;;;;;;;4.68;2.22;;;6.20;99.90;;;;;;5006713;28;20473;-67
2021/12/25 09:31:04;;;;;;;2.25;2.05;;;6.20;99.90;;;;;;5012183;28;20045;-68
2021/12/25 09:33:30;;;;;;;3.20;2.30;;;6.20;99.90;;;;;;5008593;28;20165;-68
2021/12/25 09:35:57;;;;;;;4.38;2.30;;;6.30;99.90;;;;;;5014183;28;20441;-68
2021/12/25 09:38:23;;;;;;;4.35;2.72;;;6.30;99.90;;;;;;5009330;28;20028;-68
2021/12/25 09:40:48;;;;;;;3.15;2.00;;;6.30;99.90;;;;;;5016024;28;20503;-68
2021/12/25 09:43:17;;;;;;;3.83;2.35;;;6.40;99.90;;;;;;5009731;28;20112;-67
2021/12/25 09:45:43;;;;;;;3.60;2.33;;;6.40;99.90;;;;;;5013069;28;20733;-67
2021/12/25 09:48:09;;;;;;;4.00;2.30;;;6.40;99.90;;;;;;5009845;28;20032;-68
2021/12/25 09:50:34;;;;;;;2.45;2.10;;;6.50;99.90;;;;;;5011617;28;20045;-67
2021/12/25 09:53:07;;;;;;;5.10;3.05;;;6.50;99.90;;;;;;5012476;28;20501;-67
2021/12/25 09:55:33;;;;;;;6.65;2.83;;;6.60;99.90;;;;;;5006253;28;20037;-67
2021/12/25 09:57:59;;;;;;;3.17;2.25;;;6.60;99.90;;;;;;5008302;28;20029;-67
2021/12/25 10:00:26;;;;;;;3.95;2.30;;;6.60;99.90;;;;;;5007537;28;20491;-68
2021/12/25 10:02:54;;;;;;;3.80;2.40;;;6.60;99.90;;;;;;5000576;28;20045;-68
2021/12/25 10:05:30;;;;;;;7.93;3.10;;;6.60;99.90;;;;;;5002364;28;20112;-68
2021/12/25 10:08:11;;;;;;;7.43;2.70;;;6.60;99.90;;;;;;5005759;28;20030;-68
2021/12/25 10:10:37;;;;;;;3.10;2.03;;;6.70;99.90;;;;;;5002762;28;20069;-69
2021/12/25 10:13:03;;;;;;;3.58;2.20;;;6.70;99.90;;;;;;5007555;28;20129;-69
2021/12/25 10:15:29;;;;;;;3.83;2.38;;;6.70;99.90;;;;;;5004082;28;20029;-69
2021/12/25 10:17:59;;;;;;;3.97;2.40;;;6.80;99.90;;;;;;5005526;28;20061;-69
2021/12/25 10:20:31;;;;;;;5.05;2.75;;;6.80;99.90;;;;;;5010743;28;20029;-68
2021/12/25 10:23:22;;;;;;;3.85;2.25;;;6.80;99.90;;;;;;5010160;28;20140;-68
2021/12/25 10:25:55;;;;;;;4.82;2.53;;;6.80;99.90;;;;;;5010811;28;20731;-68
2021/12/25 10:28:33;;;;;;;5.00;2.35;;;6.90;99.90;;;;;;5009805;28;20034;-68
2021/12/25 10:31:28;;;;;;;2.28;2.08;;;6.90;99.90;;;;;;5009488;28;20045;-69
2021/12/25 10:33:53;;;;;;;2.85;2.42;;;6.90;99.90;;;;;;5007799;28;20026;-68
2021/12/25 10:36:36;;;;;;;4.40;2.30;;;7.00;99.90;;;;;;5016048;28;20119;-69
2021/12/25 10:39:08;;;;;;;3.47;2.38;;;6.90;99.90;;;;;;5016075;28;20100;-68
2021/12/25 10:41:38;;;;;;;5.18;2.83;;;7.00;99.90;;;;;;5008364;28;20037;-68
2021/12/25 10:44:33;;;;;;;5.68;3.15;;;7.00;99.90;;;;;;5013727;28;20045;-68
2021/12/25 10:47:00;;;;;;;5.07;3.45;;;7.10;99.90;;;;;;5014262;28;20045;-68
2021/12/25 10:49:31;;;;;;;5.15;3.28;;;7.10;99.90;;;;;;5014665;28;20029;-68
2021/12/25 10:52:12;;;;;;;4.47;2.92;;;7.10;99.90;;;;;;5011904;28;20048;-68
2021/12/25 10:54:46;;;;;;;5.30;2.97;;;7.10;99.90;;;;;;5008029;28;20365;-68
2021/12/25 10:57:40;;;;;;;5.13;2.97;;;7.20;99.90;;;;;;5012076;28;20026;-69
2021/12/25 11:00:21;;;;;;;4.32;2.80;;;7.20;99.90;;;;;;5010807;28;20039;-69
2021/12/25 11:02:58;;;;;;;5.47;2.60;;;7.20;99.90;;;;;;5010242;28;21116;-68
2021/12/25 11:05:30;;;;;;;4.10;2.70;;;7.10;99.90;;;;;;5009167;28;20503;-69
2021/12/25 11:08:14;;;;;;;6.45;3.30;;;7.20;99.90;;;;;;5011888;28;20149;-69
2021/12/25 11:10:47;;;;;;;4.07;3.20;;;7.20;99.90;;;;;;5009955;28;20033;-69
2021/12/25 11:13:23;;;;;;;5.72;3.25;;;7.20;99.90;;;;;;5009424;28;20049;-69
2021/12/25 11:15:52;;;;;;;3.85;3.00;;;7.10;99.90;;;;;;5007500;28;20032;-68
2021/12/25 11:18:19;;;;;;;4.55;3.38;;;7.10;99.90;;;;;;5016278;28;20039;-68
2021/12/25 11:20:46;;;;;;;4.82;3.30;;;7.10;99.90;;;;;;5020239;28;20029;-68
2021/12/25 11:23:14;;;;;;;5.72;3.10;;;7.20;99.90;;;;;;5002952;28;20045;-69
2021/12/25 11:25:42;;;;;;;3.88;2.97;;;7.20;99.90;;;;;;5003081;28;20175;-69
2021/12/25 11:28:10;;;;;;;5.53;3.10;;;7.20;99.90;;;;;;5006165;28;20026;-69
2021/12/25 11:30:38;;;;;;;;;;;7.20;99.90;;;;;;5005618;28;20045;-68
2021/12/25 11:33:03;;;;;;;3.33;2.57;;;7.30;99.90;;;;;;5015220;28;19940;-69
2021/12/25 11:35:33;;;;;;;4.97;3.00;;;7.30;99.90;;;;;;5005706;28;20293;-69
2021/12/25 11:37:59;;;;;;;6.95;3.13;;;7.40;99.90;;;;;;5002929;28;20057;-69
2021/12/25 11:40:27;;;;;;;3.78;2.97;;;7.40;99.90;;;;;;5002307;28;20554;-69
2021/12/25 11:42:56;;;;;;;4.93;3.23;;;7.40;99.90;;;;;;5000921;28;20369;-69
2021/12/25 11:45:28;;;;;;;7.43;3.15;;;7.30;99.90;;;;;;5002413;28;20087;-69
2021/12/25 11:47:56;;;;;;;5.10;2.97;;;7.40;99.90;;;;;;5002205;28;20060;-68
2021/12/25 11:50:45;;;;;;;6.75;3.38;;;7.50;99.90;;;;;;5000649;28;20041;-68
2021/12/25 11:53:43;;;;;;;7.35;3.85;;;7.50;99.90;;;;;;4999454;28;20476;-68
2021/12/25 11:58:41;;;;;;;5.80;3.08;;;7.50;99.90;;;;;;5002409;28;20056;-68
2021/12/25 12:01:17;;;;;;;5.45;2.80;;;7.50;99.90;;;;;;5001956;28;20064;-69
2021/12/25 12:03:57;;;;;;;5.35;3.22;;;7.50;99.90;;;;;;5002877;28;20034;-68
2021/12/25 12:06:47;;;;;;;4.93;2.88;;;7.50;99.90;;;;;;5006093;28;20034;-68
2021/12/25 12:09:28;;;;;;;5.57;2.80;;;7.50;99.90;;;;;;5010759;28;20056;-68
2021/12/25 12:12:03;;;;;;;6.85;3.33;;;7.50;99.90;;;;;;5010879;28;20129;-68
2021/12/25 12:14:29;;;;;;;4.78;2.80;;;7.50;99.90;;;;;;5011781;28;20288;-69
2021/12/25 12:16:55;;;;;;;4.15;3.00;;;7.60;99.90;;;;;;5013807;28;20121;-68
2021/12/25 12:22:00;;;;;;;3.92;2.83;;;7.60;99.90;;;;;;5005944;28;20149;-68
2021/12/25 12:26:59;;;;;;;4.35;2.88;;;7.60;99.90;;;;;;5015291;28;20703;-68
2021/12/25 12:29:37;;;;;;;4.78;3.10;;;7.60;99.90;;;;;;5007046;28;20134;-68
2021/12/25 12:32:03;;;;;;;6.05;3.03;;;7.70;99.90;;;;;;5011828;28;20045;-68
2021/12/25 12:34:29;;;;;;;4.18;3.15;;;7.70;99.90;;;;;;5015414;28;20037;-68
2021/12/25 12:37:13;;;;;;;4.50;3.42;;;7.70;99.90;;;;;;5011255;28;20368;-68
2021/12/25 12:39:40;;;;;;;4.32;2.85;;;7.70;99.90;;;;;;5019419;28;20553;-68
2021/12/25 12:42:12;;;;;;;6.72;3.40;;;7.70;99.90;;;;;;4997483;28;20103;-68
2021/12/25 12:44:39;;;;;;;4.40;3.55;;;7.70;99.90;;;;;;5007191;28;20107;-69
2021/12/25 12:47:13;;;;;;;4.57;3.08;;;7.70;99.90;;;;;;4992275;28;20077;-69
2021/12/25 12:49:39;;;;;;;3.25;2.75;;;7.70;99.90;;;;;;5004984;28;20033;-69
2021/12/25 12:52:14;;;;;;;7.78;3.28;;;7.70;99.90;;;;;;5004914;28;20054;-69
2021/12/25 12:54:49;;;;;;;4.55;3.15;;;7.70;99.90;;;;;;5004641;28;21533;-70
2021/12/25 12:57:25;;;;;;;5.57;3.42;;;7.70;99.90;;;;;;5006534;28;20150;-69
2021/12/25 12:59:57;;;;;;;4.30;2.85;;;7.70;99.90;;;;;;5003154;28;20026;-70
2021/12/25 13:02:25;;;;;;;4.43;3.17;;;7.70;99.90;;;;;;5002712;28;20050;-70
2021/12/25 13:04:58;;;;;;;4.00;2.83;;;7.60;99.90;;;;;;4988166;28;20030;-69
2021/12/25 13:07:26;;;;;;;3.70;2.65;;;7.60;99.90;;;;;;5003979;28;20064;-69
2021/12/25 13:09:58;;;;;;;4.65;2.92;;;7.60;99.90;;;;;;5009075;28;20046;-70
2021/12/25 13:12:38;;;;;;;5.57;3.00;;;7.60;99.90;;;;;;5006043;28;20068;-69
2021/12/25 13:15:11;;;;;;;3.35;2.67;;;7.60;99.90;;;;;;5005108;28;20034;-69
2021/12/25 13:17:37;;;;;;;6.13;2.80;;;7.60;99.90;;;;;;5015691;28;20091;-69
2021/12/25 13:20:05;;;;;;;4.07;2.97;;;7.60;99.90;;;;;;5014045;28;20525;-68
2021/12/25 13:22:31;;;;;;;4.38;2.90;;;7.60;99.90;;;;;;5010066;28;20041;-69
2021/12/25 13:25:05;;;;;;;5.95;3.17;;;7.60;99.90;;;;;;5009034;28;20053;-69
2021/12/25 13:27:31;;;;;;;5.25;2.95;;;7.60;99.90;;;;;;5010912;28;20022;-69
2021/12/25 13:30:05;;;;;;;3.72;3.13;;;7.60;99.90;;;;;;5011953;28;20029;-69
2021/12/25 13:32:30;;;;;;;6.15;3.63;;;7.60;99.90;;;;;;5009098;28;20052;-69
2021/12/25 13:34:56;;;;;;;6.97;3.55;;;7.60;99.90;;;;;;5009389;28;20026;-69
2021/12/25 13:37:21;;;;;;;8.23;3.78;;;7.60;99.90;;;;;;5018315;28;20472;-69
2021/12/25 13:39:47;;;;;;;3.50;2.92;;;7.60;99.90;;;;;;5016112;28;20109;-70
2021/12/25 13:42:15;;;;;;;7.13;2.97;;;7.60;99.90;;;;;;5008179;28;20049;-69
2021/12/25 13:44:44;;;;;;;5.97;4.13;;;7.60;99.90;;;;;;5008585;28;20401;-69
2021/12/25 13:47:10;;;;;;;4.80;3.47;;;7.60;99.90;;;;;;5012094;28;20028;-70
2021/12/25 13:49:41;;;;;;;8.65;3.90;;;7.70;99.90;;;;;;5018331;28;20029;-69
2021/12/25 13:52:20;;;;;;;4.18;3.38;;;7.60;99.90;;;;;;5015271;28;20073;-69
2021/12/25 13:55:01;;;;;;;4.75;3.40;;;7.70;99.90;;;;;;5011477;28;20028;-68
2021/12/25 13:57:28;;;;;;;5.03;3.70;;;7.70;99.90;;;;;;5009373;28;20462;-69
2021/12/25 14:00:02;;;;;;;6.78;3.75;;;7.70;99.90;;;;;;5008472;28;20041;-69
2021/12/25 14:02:29;;;;;;;4.93;3.35;;;7.70;99.90;;;;;;5005618;28;20491;-69
2021/12/25 14:04:56;;;;;;;5.22;3.42;;;7.60;99.90;;;;;;5005589;28;20029;-69
2021/12/25 14:07:26;;;;;;;4.88;3.30;;;7.70;99.90;;;;;;5007601;28;20036;-69
2021/12/25 14:10:03;;;;;;;5.85;3.63;;;7.70;99.90;;;;;;5007889;28;20042;-69
2021/12/25 14:12:30;;;;;;;4.68;3.88;;;7.70;99.90;;;;;;5013479;28;20029;-69
2021/12/25 14:14:59;;;;;;;6.10;3.70;;;7.70;99.90;;;;;;5006860;28;20165;-68
2021/12/25 14:17:25;;;;;;;7.22;3.83;;;7.70;99.90;;;;;;5007414;28;20029;-68
2021/12/25 14:20:09;;;;;;;4.97;2.90;;;7.70;99.90;;;;;;5008748;28;20084;-68
2021/12/25 14:22:35;;;;;;;5.90;3.38;;;7.70;99.90;;;;;;5008980;28;20037;-68
2021/12/25 14:25:01;;;;;;;3.97;3.17;;;7.70;99.90;;;;;;5004900;28;20029;-68
2021/12/25 14:27:27;;;;;;;4.20;3.67;;;7.70;99.90;;;;;;5003925;28;20719;-68
2021/12/25 14:30:09;;;;;;;4.65;3.70;;;7.70;99.90;;;;;;5009532;28;20033;-68